sensor_id;sensor_type;location;lat;lon;timestamp;temperature;humidity
5023;DHT22;2530;47.990;7.866;2022-09-14T00:02:13;19.70;99.90
5023;DHT22;2530;47.990;7.866;2022-09-14T00:04:38;19.70;99.90
5023;DHT22;2530;47.990;7.866;2022-09-14T00:07:06;19.60;99.90
5023;DHT22;2530;47.990;7.866;2022-09-14T00:09:32;19.60;99.90
5023;DHT22;2530;47.990;7.866;2022-09-14T00:11:58;19.60;99.90
5023;DHT22;2530;47.990;7.866;2022-09-14T00:14:24;19.50;99.90
5023;DHT22;2530;47.990;7.866;2022-09-14T00:16:49;19.60;99.90
5023;DHT22;2530;47.990;7.866;2022-09-14T00:19:25;19.60;99.90
5023;DHT22;2530;47.990;7.866;2022-09-14T00:21:54;19.50;99.90
5023;DHT22;2530;47.990;7.866;2022-09-14T00:24:20;19.50;99.90
5023;DHT22;2530;47.990;7.866;2022-09-14T00:26:46;19.50;99.90
5023;DHT22;2530;47.990;7.866;2022-09-14T00:29:12;19.60;99.90
5023;DHT22;2530;47.990;7.866;2022-09-14T00:31:38;19.60;99.90
5023;DHT22;2530;47.990;7.866;2022-09-14T00:34:06;19.60;99.90
5023;DHT22;2530;47.990;7.866;2022-09-14T00:36:36;19.60;99.90
5023;DHT22;2530;47.990;7.866;2022-09-14T00:39:02;19.60;99.90
5023;DHT22;2530;47.990;7.866;2022-09-14T00:41:31;19.60;99.90
5023;DHT22;2530;47.990;7.866;2022-09-14T00:46:24;19.80;99.90
5023;DHT22;2530;47.990;7.866;2022-09-14T00:48:51;19.70;99.90
5023;DHT22;2530;47.990;7.866;2022-09-14T00:51:18;19.60;99.90
5023;DHT22;2530;47.990;7.866;2022-09-14T00:53:45;19.90;99.90
5023;DHT22;2530;47.990;7.866;2022-09-14T00:56:11;19.80;99.90
5023;DHT22;2530;47.990;7.866;2022-09-14T00:58:37;19.70;99.90
5023;DHT22;2530;47.990;7.866;2022-09-14T01:01:03;19.60;99.90
5023;DHT22;2530;47.990;7.866;2022-09-14T01:03:29;19.60;99.90
5023;DHT22;2530;47.990;7.866;2022-09-14T01:11:27;19.60;99.90
5023;DHT22;2530;47.990;7.866;2022-09-14T01:14:09;19.60;99.90
5023;DHT22;2530;47.990;7.866;2022-09-14T01:22:18;19.50;99.90
5023;DHT22;2530;47.990;7.866;2022-09-14T01:24:52;19.50;99.90
5023;DHT22;2530;47.990;7.866;2022-09-14T01:27:33;19.60;99.90
5023;DHT22;2530;47.990;7.866;2022-09-14T01:30:19;19.60;99.90
5023;DHT22;2530;47.990;7.866;2022-09-14T01:33:20;19.50;99.90
5023;DHT22;2530;47.990;7.866;2022-09-14T01:35:46;19.50;99.90
5023;DHT22;2530;47.990;7.866;2022-09-14T01:38:19;19.50;99.90
5023;DHT22;2530;47.990;7.866;2022-09-14T01:40:48;19.50;99.90
5023;DHT22;2530;47.990;7.866;2022-09-14T01:45:52;19.40;99.90
5023;DHT22;2530;47.990;7.866;2022-09-14T01:48:24;19.60;99.90
5023;DHT22;2530;47.990;7.866;2022-09-14T01:50:53;19.60;99.90
5023;DHT22;2530;47.990;7.866;2022-09-14T01:53:34;19.50;99.90
5023;DHT22;2530;47.990;7.866;2022-09-14T01:56:22;19.60;99.90
5023;DHT22;2530;47.990;7.866;2022-09-14T01:59:13;19.50;99.90
5023;DHT22;2530;47.990;7.866;2022-09-14T02:01:48;19.50;99.90
5023;DHT22;2530;47.990;7.866;2022-09-14T02:04:19;19.50;99.90
5023;DHT22;2530;47.990;7.866;2022-09-14T02:06:46;19.50;99.90
5023;DHT22;2530;47.990;7.866;2022-09-14T02:09:18;19.50;99.90
5023;DHT22;2530;47.990;7.866;2022-09-14T02:11:45;19.50;99.90
5023;DHT22;2530;47.990;7.866;2022-09-14T02:14:11;19.60;99.90
5023;DHT22;2530;47.990;7.866;2022-09-14T02:16:36;19.60;99.90
5023;DHT22;2530;47.990;7.866;2022-09-14T02:19:02;19.50;99.90
5023;DHT22;2530;47.990;7.866;2022-09-14T02:21:30;19.50;99.90
5023;DHT22;2530;47.990;7.866;2022-09-14T02:23:57;19.40;99.90
5023;DHT22;2530;47.990;7.866;2022-09-14T02:26:24;19.50;99.90
5023;DHT22;2530;47.990;7.866;2022-09-14T02:28:50;19.50;99.90
5023;DHT22;2530;47.990;7.866;2022-09-14T02:31:42;19.50;99.90
5023;DHT22;2530;47.990;7.866;2022-09-14T02:34:25;19.50;99.90
5023;DHT22;2530;47.990;7.866;2022-09-14T02:39:34;19.50;99.90
5023;DHT22;2530;47.990;7.866;2022-09-14T02:47:19;19.50;99.90
5023;DHT22;2530;47.990;7.866;2022-09-14T02:52:32;19.60;99.90
5023;DHT22;2530;47.990;7.866;2022-09-14T02:55:05;20.10;99.90
5023;DHT22;2530;47.990;7.866;2022-09-14T02:57:32;20.50;99.90
5023;DHT22;2530;47.990;7.866;2022-09-14T02:59:58;21.20;99.90
5023;DHT22;2530;47.990;7.866;2022-09-14T03:02:23;21.80;99.90
5023;DHT22;2530;47.990;7.866;2022-09-14T03:04:49;22.20;99.90
5023;DHT22;2530;47.990;7.866;2022-09-14T03:07:14;22.40;99.90
5023;DHT22;2530;47.990;7.866;2022-09-14T03:09:40;22.40;99.90
5023;DHT22;2530;47.990;7.866;2022-09-14T03:12:05;22.30;99.90
5023;DHT22;2530;47.990;7.866;2022-09-14T03:14:31;21.50;99.90
5023;DHT22;2530;47.990;7.866;2022-09-14T03:16:56;20.20;99.90
5023;DHT22;2530;47.990;7.866;2022-09-14T03:19:22;20.10;99.90
5023;DHT22;2530;47.990;7.866;2022-09-14T03:21:47;19.90;99.90
5023;DHT22;2530;47.990;7.866;2022-09-14T03:24:13;19.70;99.90
5023;DHT22;2530;47.990;7.866;2022-09-14T03:26:38;19.70;99.90
5023;DHT22;2530;47.990;7.866;2022-09-14T03:29:05;19.60;99.90
5023;DHT22;2530;47.990;7.866;2022-09-14T03:31:32;19.60;99.90
5023;DHT22;2530;47.990;7.866;2022-09-14T03:33:59;19.50;99.90
5023;DHT22;2530;47.990;7.866;2022-09-14T03:36:27;19.50;99.90
5023;DHT22;2530;47.990;7.866;2022-09-14T03:38:55;19.60;99.90
5023;DHT22;2530;47.990;7.866;2022-09-14T03:41:22;19.70;99.90
5023;DHT22;2530;47.990;7.866;2022-09-14T03:43:48;19.70;99.90
5023;DHT22;2530;47.990;7.866;2022-09-14T03:46:15;19.80;99.90
5023;DHT22;2530;47.990;7.866;2022-09-14T03:48:42;19.60;99.90
5023;DHT22;2530;47.990;7.866;2022-09-14T03:51:09;19.60;99.90
5023;DHT22;2530;47.990;7.866;2022-09-14T03:53:36;19.50;99.90
5023;DHT22;2530;47.990;7.866;2022-09-14T03:56:07;19.50;99.90
5023;DHT22;2530;47.990;7.866;2022-09-14T03:58:32;19.60;99.90
5023;DHT22;2530;47.990;7.866;2022-09-14T04:01:05;19.50;99.90
5023;DHT22;2530;47.990;7.866;2022-09-14T04:03:31;19.60;99.90
5023;DHT22;2530;47.990;7.866;2022-09-14T04:05:57;19.70;99.90
5023;DHT22;2530;47.990;7.866;2022-09-14T04:08:23;19.50;99.90
5023;DHT22;2530;47.990;7.866;2022-09-14T04:10:49;19.60;99.90
5023;DHT22;2530;47.990;7.866;2022-09-14T04:13:14;19.70;99.90
5023;DHT22;2530;47.990;7.866;2022-09-14T04:15:40;19.80;99.90
5023;DHT22;2530;47.990;7.866;2022-09-14T04:18:05;19.90;99.90
5023;DHT22;2530;47.990;7.866;2022-09-14T04:20:31;20.00;99.90
5023;DHT22;2530;47.990;7.866;2022-09-14T04:22:56;20.00;99.90
5023;DHT22;2530;47.990;7.866;2022-09-14T04:25:22;20.10;99.90
5023;DHT22;2530;47.990;7.866;2022-09-14T04:27:49;20.10;99.90
5023;DHT22;2530;47.990;7.866;2022-09-14T04:30:14;20.10;99.90
5023;DHT22;2530;47.990;7.866;2022-09-14T04:32:40;19.90;99.90
5023;DHT22;2530;47.990;7.866;2022-09-14T04:35:06;20.00;99.90
5023;DHT22;2530;47.990;7.866;2022-09-14T04:37:31;20.10;99.90
5023;DHT22;2530;47.990;7.866;2022-09-14T04:39:57;19.80;99.90
5023;DHT22;2530;47.990;7.866;2022-09-14T04:42:23;19.70;99.90
5023;DHT22;2530;47.990;7.866;2022-09-14T04:44:48;19.60;99.90
5023;DHT22;2530;47.990;7.866;2022-09-14T04:47:14;19.50;99.90
5023;DHT22;2530;47.990;7.866;2022-09-14T04:49:40;19.40;99.90
5023;DHT22;2530;47.990;7.866;2022-09-14T04:52:05;19.40;99.90
5023;DHT22;2530;47.990;7.866;2022-09-14T04:54:31;19.30;99.90
5023;DHT22;2530;47.990;7.866;2022-09-14T04:56:56;19.30;99.90
5023;DHT22;2530;47.990;7.866;2022-09-14T04:59:22;19.20;99.90
5023;DHT22;2530;47.990;7.866;2022-09-14T05:01:47;19.10;99.90
5023;DHT22;2530;47.990;7.866;2022-09-14T05:04:13;19.00;99.90
5023;DHT22;2530;47.990;7.866;2022-09-14T05:06:40;19.10;99.90
5023;DHT22;2530;47.990;7.866;2022-09-14T05:09:10;19.10;99.90
5023;DHT22;2530;47.990;7.866;2022-09-14T05:11:37;19.10;99.90
5023;DHT22;2530;47.990;7.866;2022-09-14T05:14:04;19.00;99.90
5023;DHT22;2530;47.990;7.866;2022-09-14T05:16:31;19.10;99.90
5023;DHT22;2530;47.990;7.866;2022-09-14T05:19:00;19.10;99.90
5023;DHT22;2530;47.990;7.866;2022-09-14T05:21:28;19.10;99.90
5023;DHT22;2530;47.990;7.866;2022-09-14T05:23:58;19.10;99.90
5023;DHT22;2530;47.990;7.866;2022-09-14T05:26:25;19.10;99.90
5023;DHT22;2530;47.990;7.866;2022-09-14T05:28:53;19.20;99.90
5023;DHT22;2530;47.990;7.866;2022-09-14T05:31:20;19.20;99.90
5023;DHT22;2530;47.990;7.866;2022-09-14T05:33:46;20.10;99.90
5023;DHT22;2530;47.990;7.866;2022-09-14T05:36:11;20.00;99.90
5023;DHT22;2530;47.990;7.866;2022-09-14T05:38:38;19.80;99.90
5023;DHT22;2530;47.990;7.866;2022-09-14T05:41:05;20.00;99.90
5023;DHT22;2530;47.990;7.866;2022-09-14T05:43:31;20.10;99.90
5023;DHT22;2530;47.990;7.866;2022-09-14T05:46:03;20.10;99.90
5023;DHT22;2530;47.990;7.866;2022-09-14T05:48:36;20.10;99.90
5023;DHT22;2530;47.990;7.866;2022-09-14T05:51:06;20.00;99.90
5023;DHT22;2530;47.990;7.866;2022-09-14T05:53:32;19.90;99.90
5023;DHT22;2530;47.990;7.866;2022-09-14T05:56:10;19.90;99.90
5023;DHT22;2530;47.990;7.866;2022-09-14T05:58:37;20.10;99.90
5023;DHT22;2530;47.990;7.866;2022-09-14T06:01:12;20.30;99.90
5023;DHT22;2530;47.990;7.866;2022-09-14T06:03:37;20.20;99.90
5023;DHT22;2530;47.990;7.866;2022-09-14T06:06:05;20.00;99.90
5023;DHT22;2530;47.990;7.866;2022-09-14T06:08:31;20.00;99.90
5023;DHT22;2530;47.990;7.866;2022-09-14T06:11:20;19.90;99.90
5023;DHT22;2530;47.990;7.866;2022-09-14T06:13:47;19.80;99.90
5023;DHT22;2530;47.990;7.866;2022-09-14T06:16:15;19.80;99.90
5023;DHT22;2530;47.990;7.866;2022-09-14T06:18:42;19.80;99.90
5023;DHT22;2530;47.990;7.866;2022-09-14T06:21:09;20.00;99.90
5023;DHT22;2530;47.990;7.866;2022-09-14T06:23:35;20.10;99.90
5023;DHT22;2530;47.990;7.866;2022-09-14T06:26:02;20.30;99.90
5023;DHT22;2530;47.990;7.866;2022-09-14T06:28:29;20.20;99.90
5023;DHT22;2530;47.990;7.866;2022-09-14T06:30:55;20.30;99.90
5023;DHT22;2530;47.990;7.866;2022-09-14T06:33:21;20.20;99.90
5023;DHT22;2530;47.990;7.866;2022-09-14T06:35:57;20.30;99.90
5023;DHT22;2530;47.990;7.866;2022-09-14T06:38:24;20.40;99.90
5023;DHT22;2530;47.990;7.866;2022-09-14T06:40:57;20.50;99.90
5023;DHT22;2530;47.990;7.866;2022-09-14T06:43:28;20.90;99.90
5023;DHT22;2530;47.990;7.866;2022-09-14T06:45:59;21.40;99.90
5023;DHT22;2530;47.990;7.866;2022-09-14T06:48:30;21.60;99.90
5023;DHT22;2530;47.990;7.866;2022-09-14T06:50:55;21.70;99.90
5023;DHT22;2530;47.990;7.866;2022-09-14T06:53:21;21.70;99.90
5023;DHT22;2530;47.990;7.866;2022-09-14T06:55:47;21.80;99.90
5023;DHT22;2530;47.990;7.866;2022-09-14T06:58:13;21.80;99.90
5023;DHT22;2530;47.990;7.866;2022-09-14T07:00:39;21.90;99.90
5023;DHT22;2530;47.990;7.866;2022-09-14T07:03:04;22.00;99.90
5023;DHT22;2530;47.990;7.866;2022-09-14T07:05:31;21.90;99.90
5023;DHT22;2530;47.990;7.866;2022-09-14T07:07:56;22.00;99.90
5023;DHT22;2530;47.990;7.866;2022-09-14T07:10:23;21.90;99.90
5023;DHT22;2530;47.990;7.866;2022-09-14T07:12:57;21.80;99.90
5023;DHT22;2530;47.990;7.866;2022-09-14T07:15:22;21.70;99.90
5023;DHT22;2530;47.990;7.866;2022-09-14T07:17:48;21.70;99.90
5023;DHT22;2530;47.990;7.866;2022-09-14T07:20:14;21.80;99.90
5023;DHT22;2530;47.990;7.866;2022-09-14T07:22:42;22.00;99.90
5023;DHT22;2530;47.990;7.866;2022-09-14T07:25:08;22.00;99.90
5023;DHT22;2530;47.990;7.866;2022-09-14T07:27:34;22.00;99.90
5023;DHT22;2530;47.990;7.866;2022-09-14T07:30:00;22.10;99.90
5023;DHT22;2530;47.990;7.866;2022-09-14T07:32:25;22.10;99.90
5023;DHT22;2530;47.990;7.866;2022-09-14T07:34:51;22.20;99.90
5023;DHT22;2530;47.990;7.866;2022-09-14T07:37:17;22.30;99.90
5023;DHT22;2530;47.990;7.866;2022-09-14T07:39:42;22.50;99.90
5023;DHT22;2530;47.990;7.866;2022-09-14T07:42:08;22.50;99.90
5023;DHT22;2530;47.990;7.866;2022-09-14T07:44:33;22.70;99.90
5023;DHT22;2530;47.990;7.866;2022-09-14T07:46:59;22.80;99.90
5023;DHT22;2530;47.990;7.866;2022-09-14T07:49:25;22.80;99.90
5023;DHT22;2530;47.990;7.866;2022-09-14T07:51:51;22.90;99.90
5023;DHT22;2530;47.990;7.866;2022-09-14T07:54:17;23.00;99.90
5023;DHT22;2530;47.990;7.866;2022-09-14T07:56:44;23.20;99.90
5023;DHT22;2530;47.990;7.866;2022-09-14T07:59:11;23.10;99.90
5023;DHT22;2530;47.990;7.866;2022-09-14T08:01:37;23.10;99.90
5023;DHT22;2530;47.990;7.866;2022-09-14T08:04:03;23.00;99.90
5023;DHT22;2530;47.990;7.866;2022-09-14T08:06:30;23.00;99.90
5023;DHT22;2530;47.990;7.866;2022-09-14T08:08:56;23.10;99.90
5023;DHT22;2530;47.990;7.866;2022-09-14T08:11:25;23.10;99.90
5023;DHT22;2530;47.990;7.866;2022-09-14T08:13:56;23.20;99.90
5023;DHT22;2530;47.990;7.866;2022-09-14T08:16:24;23.20;99.90
5023;DHT22;2530;47.990;7.866;2022-09-14T08:18:54;23.10;99.90
5023;DHT22;2530;47.990;7.866;2022-09-14T08:21:21;23.20;99.90
5023;DHT22;2530;47.990;7.866;2022-09-14T08:23:47;23.30;99.90
5023;DHT22;2530;47.990;7.866;2022-09-14T08:26:20;23.20;99.90
5023;DHT22;2530;47.990;7.866;2022-09-14T08:28:46;23.30;99.90
5023;DHT22;2530;47.990;7.866;2022-09-14T08:31:30;23.30;99.90
5023;DHT22;2530;47.990;7.866;2022-09-14T08:34:01;23.30;99.90
5023;DHT22;2530;47.990;7.866;2022-09-14T08:36:32;23.40;99.90
5023;DHT22;2530;47.990;7.866;2022-09-14T08:38:58;23.40;99.90
5023;DHT22;2530;47.990;7.866;2022-09-14T08:41:28;23.30;99.90
5023;DHT22;2530;47.990;7.866;2022-09-14T08:49:45;23.30;99.90
5023;DHT22;2530;47.990;7.866;2022-09-14T08:52:33;23.40;99.90
5023;DHT22;2530;47.990;7.866;2022-09-14T08:55:13;23.40;99.90
5023;DHT22;2530;47.990;7.866;2022-09-14T09:00:21;23.60;99.90
5023;DHT22;2530;47.990;7.866;2022-09-14T09:02:55;23.60;99.90
5023;DHT22;2530;47.990;7.866;2022-09-14T09:08:20;23.90;99.90
5023;DHT22;2530;47.990;7.866;2022-09-14T09:10:48;24.00;99.90
5023;DHT22;2530;47.990;7.866;2022-09-14T09:13:18;24.00;99.90
5023;DHT22;2530;47.990;7.866;2022-09-14T09:15:48;24.00;99.90
5023;DHT22;2530;47.990;7.866;2022-09-14T09:18:22;24.10;99.90
5023;DHT22;2530;47.990;7.866;2022-09-14T09:20:56;24.30;99.90
5023;DHT22;2530;47.990;7.866;2022-09-14T09:23:27;24.20;99.90
5023;DHT22;2530;47.990;7.866;2022-09-14T09:28:19;24.30;99.90
5023;DHT22;2530;47.990;7.866;2022-09-14T09:30:46;24.30;99.90
5023;DHT22;2530;47.990;7.866;2022-09-14T09:33:18;24.20;99.90
5023;DHT22;2530;47.990;7.866;2022-09-14T09:35:44;24.10;99.90
5023;DHT22;2530;47.990;7.866;2022-09-14T09:38:15;24.10;99.90
5023;DHT22;2530;47.990;7.866;2022-09-14T09:40:47;24.30;99.90
5023;DHT22;2530;47.990;7.866;2022-09-14T09:43:15;24.20;99.90
5023;DHT22;2530;47.990;7.866;2022-09-14T09:45:58;24.40;99.90
5023;DHT22;2530;47.990;7.866;2022-09-14T09:51:14;24.40;99.90
5023;DHT22;2530;47.990;7.866;2022-09-14T09:53:56;24.40;99.90
5023;DHT22;2530;47.990;7.866;2022-09-14T09:56:25;24.50;99.90
5023;DHT22;2530;47.990;7.866;2022-09-14T09:58:52;24.50;99.90
5023;DHT22;2530;47.990;7.866;2022-09-14T10:04:01;24.50;99.90
5023;DHT22;2530;47.990;7.866;2022-09-14T10:06:27;24.40;99.90
5023;DHT22;2530;47.990;7.866;2022-09-14T10:08:54;24.30;99.90
5023;DHT22;2530;47.990;7.866;2022-09-14T10:11:33;24.20;99.90
5023;DHT22;2530;47.990;7.866;2022-09-14T10:14:01;24.20;99.90
5023;DHT22;2530;47.990;7.866;2022-09-14T10:16:35;24.10;99.90
5023;DHT22;2530;47.990;7.866;2022-09-14T10:19:02;23.90;99.90
5023;DHT22;2530;47.990;7.866;2022-09-14T10:21:28;23.70;99.90
5023;DHT22;2530;47.990;7.866;2022-09-14T10:24:25;23.50;99.90
5023;DHT22;2530;47.990;7.866;2022-09-14T10:26:51;23.40;99.90
5023;DHT22;2530;47.990;7.866;2022-09-14T10:32:03;20.80;99.90
5023;DHT22;2530;47.990;7.866;2022-09-14T10:34:29;20.60;99.90
5023;DHT22;2530;47.990;7.866;2022-09-14T10:37:08;20.60;99.90
5023;DHT22;2530;47.990;7.866;2022-09-14T10:39:54;20.60;99.90
5023;DHT22;2530;47.990;7.866;2022-09-14T10:42:35;20.70;99.90
5023;DHT22;2530;47.990;7.866;2022-09-14T10:48:21;20.60;99.90
5023;DHT22;2530;47.990;7.866;2022-09-14T10:51:02;20.70;99.90
5023;DHT22;2530;47.990;7.866;2022-09-14T10:53:55;20.80;99.90
5023;DHT22;2530;47.990;7.866;2022-09-14T10:59:18;21.00;99.90
5023;DHT22;2530;47.990;7.866;2022-09-14T11:07:19;21.20;99.90
5023;DHT22;2530;47.990;7.866;2022-09-14T11:09:51;21.10;99.90
5023;DHT22;2530;47.990;7.866;2022-09-14T11:20:40;21.00;99.90
5023;DHT22;2530;47.990;7.866;2022-09-14T11:23:25;21.00;99.90
5023;DHT22;2530;47.990;7.866;2022-09-14T11:31:08;20.90;99.90
5023;DHT22;2530;47.990;7.866;2022-09-14T11:34:01;20.90;99.90
5023;DHT22;2530;47.990;7.866;2022-09-14T11:36:36;20.90;99.90
5023;DHT22;2530;47.990;7.866;2022-09-14T11:42:29;21.00;99.90
5023;DHT22;2530;47.990;7.866;2022-09-14T11:44:39;21.00;99.90
5023;DHT22;2530;47.990;7.866;2022-09-14T11:47:08;21.10;99.90
5023;DHT22;2530;47.990;7.866;2022-09-14T11:49:57;21.10;99.90
5023;DHT22;2530;47.990;7.866;2022-09-14T11:52:26;21.10;99.90
5023;DHT22;2530;47.990;7.866;2022-09-14T11:54:53;21.00;99.90
5023;DHT22;2530;47.990;7.866;2022-09-14T11:57:30;21.00;99.90
5023;DHT22;2530;47.990;7.866;2022-09-14T11:59:58;20.90;99.90
5023;DHT22;2530;47.990;7.866;2022-09-14T12:10:16;20.90;99.90
5023;DHT22;2530;47.990;7.866;2022-09-14T12:28:37;21.30;99.90
5023;DHT22;2530;47.990;7.866;2022-09-14T12:40:55;21.30;99.90
5023;DHT22;2530;47.990;7.866;2022-09-14T12:49:02;21.10;99.90
5023;DHT22;2530;47.990;7.866;2022-09-14T13:04:56;20.90;99.90
5023;DHT22;2530;47.990;7.866;2022-09-14T13:07:27;20.90;99.90
5023;DHT22;2530;47.990;7.866;2022-09-14T13:09:55;20.90;99.90
5023;DHT22;2530;47.990;7.866;2022-09-14T13:12:39;20.80;99.90
5023;DHT22;2530;47.990;7.866;2022-09-14T13:15:15;20.70;99.90
5023;DHT22;2530;47.990;7.866;2022-09-14T13:18:39;20.60;99.90
5023;DHT22;2530;47.990;7.866;2022-09-14T13:20:49;20.60;99.90
5023;DHT22;2530;47.990;7.866;2022-09-14T13:23:23;20.50;99.90
5023;DHT22;2530;47.990;7.866;2022-09-14T13:25:51;20.40;99.90
5023;DHT22;2530;47.990;7.866;2022-09-14T13:28:18;20.30;99.90
5023;DHT22;2530;47.990;7.866;2022-09-14T13:31:05;20.20;99.90
5023;DHT22;2530;47.990;7.866;2022-09-14T13:33:30;20.20;99.90
5023;DHT22;2530;47.990;7.866;2022-09-14T13:35:59;20.30;99.90
5023;DHT22;2530;47.990;7.866;2022-09-14T13:38:35;20.30;99.90
5023;DHT22;2530;47.990;7.866;2022-09-14T13:41:21;20.10;99.90
5023;DHT22;2530;47.990;7.866;2022-09-14T13:43:48;19.90;99.90
5023;DHT22;2530;47.990;7.866;2022-09-14T13:46:15;19.90;99.90
5023;DHT22;2530;47.990;7.866;2022-09-14T13:48:42;20.00;99.90
5023;DHT22;2530;47.990;7.866;2022-09-14T13:51:09;20.20;99.90
5023;DHT22;2530;47.990;7.866;2022-09-14T13:53:47;20.20;99.90
5023;DHT22;2530;47.990;7.866;2022-09-14T13:56:33;20.20;99.90
5023;DHT22;2530;47.990;7.866;2022-09-14T14:01:40;20.20;99.90
5023;DHT22;2530;47.990;7.866;2022-09-14T14:07:16;20.50;99.90
5023;DHT22;2530;47.990;7.866;2022-09-14T14:09:54;20.60;99.90
5023;DHT22;2530;47.990;7.866;2022-09-14T14:12:28;20.60;99.90
5023;DHT22;2530;47.990;7.866;2022-09-14T14:15:02;21.00;99.90
5023;DHT22;2530;47.990;7.866;2022-09-14T14:20:10;21.20;99.90
5023;DHT22;2530;47.990;7.866;2022-09-14T14:25:34;21.00;99.90
5023;DHT22;2530;47.990;7.866;2022-09-14T14:28:05;20.90;99.90
5023;DHT22;2530;47.990;7.866;2022-09-14T14:30:35;20.80;99.90
5023;DHT22;2530;47.990;7.866;2022-09-14T14:33:02;20.60;99.90
5023;DHT22;2530;47.990;7.866;2022-09-14T14:35:31;20.50;99.90
5023;DHT22;2530;47.990;7.866;2022-09-14T14:37:57;20.60;99.90
5023;DHT22;2530;47.990;7.866;2022-09-14T14:40:24;20.80;99.90
5023;DHT22;2530;47.990;7.866;2022-09-14T14:42:52;20.90;99.90
5023;DHT22;2530;47.990;7.866;2022-09-14T14:45:21;21.20;99.90
5023;DHT22;2530;47.990;7.866;2022-09-14T14:47:50;21.40;99.90
5023;DHT22;2530;47.990;7.866;2022-09-14T14:50:22;21.60;99.90
5023;DHT22;2530;47.990;7.866;2022-09-14T14:56:11;21.40;99.90
5023;DHT22;2530;47.990;7.866;2022-09-14T14:58:44;21.40;99.90
5023;DHT22;2530;47.990;7.866;2022-09-14T15:01:10;21.50;99.90
5023;DHT22;2530;47.990;7.866;2022-09-14T15:03:36;22.00;99.90
5023;DHT22;2530;47.990;7.866;2022-09-14T15:06:19;22.40;99.90
5023;DHT22;2530;47.990;7.866;2022-09-14T15:08:53;22.70;99.90
5023;DHT22;2530;47.990;7.866;2022-09-14T15:14:24;22.20;99.90
5023;DHT22;2530;47.990;7.866;2022-09-14T15:16:55;22.10;99.90
5023;DHT22;2530;47.990;7.866;2022-09-14T15:19:25;22.00;99.90
5023;DHT22;2530;47.990;7.866;2022-09-14T15:21:50;21.90;99.90
5023;DHT22;2530;47.990;7.866;2022-09-14T15:24:16;21.70;99.90
5023;DHT22;2530;47.990;7.866;2022-09-14T15:26:44;21.60;99.90
5023;DHT22;2530;47.990;7.866;2022-09-14T15:29:11;21.30;99.90
5023;DHT22;2530;47.990;7.866;2022-09-14T15:31:45;21.30;99.90
5023;DHT22;2530;47.990;7.866;2022-09-14T15:34:11;21.30;99.90
5023;DHT22;2530;47.990;7.866;2022-09-14T15:36:46;21.20;99.90
5023;DHT22;2530;47.990;7.866;2022-09-14T15:39:14;21.30;99.90
5023;DHT22;2530;47.990;7.866;2022-09-14T15:41:41;21.20;99.90
5023;DHT22;2530;47.990;7.866;2022-09-14T15:44:07;21.10;99.90
5023;DHT22;2530;47.990;7.866;2022-09-14T15:46:33;21.10;99.90
5023;DHT22;2530;47.990;7.866;2022-09-14T15:49:04;21.00;99.90
5023;DHT22;2530;47.990;7.866;2022-09-14T15:51:30;21.00;99.90
5023;DHT22;2530;47.990;7.866;2022-09-14T15:53:58;21.00;99.90
5023;DHT22;2530;47.990;7.866;2022-09-14T15:56:24;20.90;99.90
5023;DHT22;2530;47.990;7.866;2022-09-14T15:58:50;20.90;99.90
5023;DHT22;2530;47.990;7.866;2022-09-14T16:01:16;20.90;99.90
5023;DHT22;2530;47.990;7.866;2022-09-14T16:03:42;20.90;99.90
5023;DHT22;2530;47.990;7.866;2022-09-14T16:06:10;21.00;99.90
5023;DHT22;2530;47.990;7.866;2022-09-14T16:08:37;21.10;99.90
5023;DHT22;2530;47.990;7.866;2022-09-14T16:11:07;21.20;99.90
5023;DHT22;2530;47.990;7.866;2022-09-14T16:13:33;21.20;99.90
5023;DHT22;2530;47.990;7.866;2022-09-14T16:16:18;21.30;99.90
5023;DHT22;2530;47.990;7.866;2022-09-14T16:18:44;21.20;99.90
5023;DHT22;2530;47.990;7.866;2022-09-14T16:21:15;21.40;99.90
5023;DHT22;2530;47.990;7.866;2022-09-14T16:23:44;21.40;99.90
5023;DHT22;2530;47.990;7.866;2022-09-14T16:26:18;21.40;99.90
5023;DHT22;2530;47.990;7.866;2022-09-14T16:28:45;21.30;99.90
5023;DHT22;2530;47.990;7.866;2022-09-14T16:31:16;21.20;99.90
5023;DHT22;2530;47.990;7.866;2022-09-14T16:33:47;21.10;99.90
5023;DHT22;2530;47.990;7.866;2022-09-14T16:36:19;21.00;99.90
5023;DHT22;2530;47.990;7.866;2022-09-14T16:38:44;20.90;99.90
5023;DHT22;2530;47.990;7.866;2022-09-14T16:41:11;20.80;99.90
5023;DHT22;2530;47.990;7.866;2022-09-14T16:43:37;20.80;99.90
5023;DHT22;2530;47.990;7.866;2022-09-14T16:46:24;20.70;99.90
5023;DHT22;2530;47.990;7.866;2022-09-14T16:48:49;20.60;99.90
5023;DHT22;2530;47.990;7.866;2022-09-14T16:51:17;20.60;99.90
5023;DHT22;2530;47.990;7.866;2022-09-14T16:53:44;20.50;99.90
5023;DHT22;2530;47.990;7.866;2022-09-14T16:58:45;20.30;99.90
5023;DHT22;2530;47.990;7.866;2022-09-14T17:01:15;20.20;99.90
5023;DHT22;2530;47.990;7.866;2022-09-14T17:03:42;20.20;99.90
5023;DHT22;2530;47.990;7.866;2022-09-14T17:06:10;20.10;99.90
5023;DHT22;2530;47.990;7.866;2022-09-14T17:08:37;20.10;99.90
5023;DHT22;2530;47.990;7.866;2022-09-14T17:11:03;20.10;99.90
5023;DHT22;2530;47.990;7.866;2022-09-14T17:13:30;20.10;99.90
5023;DHT22;2530;47.990;7.866;2022-09-14T17:16:07;20.10;99.90
5023;DHT22;2530;47.990;7.866;2022-09-14T17:18:34;20.10;99.90
5023;DHT22;2530;47.990;7.866;2022-09-14T17:21:03;19.90;99.90
5023;DHT22;2530;47.990;7.866;2022-09-14T17:23:29;19.70;99.90
5023;DHT22;2530;47.990;7.866;2022-09-14T17:25:55;19.60;99.90
5023;DHT22;2530;47.990;7.866;2022-09-14T17:28:23;19.70;99.90
5023;DHT22;2530;47.990;7.866;2022-09-14T17:30:51;19.60;99.90
5023;DHT22;2530;47.990;7.866;2022-09-14T17:33:17;19.70;99.90
5023;DHT22;2530;47.990;7.866;2022-09-14T17:35:47;19.70;99.90
5023;DHT22;2530;47.990;7.866;2022-09-14T17:38:13;19.70;99.90
5023;DHT22;2530;47.990;7.866;2022-09-14T17:40:39;19.60;99.90
5023;DHT22;2530;47.990;7.866;2022-09-14T17:43:05;19.50;99.90
5023;DHT22;2530;47.990;7.866;2022-09-14T17:45:30;19.50;99.90
5023;DHT22;2530;47.990;7.866;2022-09-14T17:47:56;19.50;99.90
5023;DHT22;2530;47.990;7.866;2022-09-14T17:50:21;19.50;99.90
5023;DHT22;2530;47.990;7.866;2022-09-14T17:52:48;19.50;99.90
5023;DHT22;2530;47.990;7.866;2022-09-14T17:55:14;19.60;99.90
5023;DHT22;2530;47.990;7.866;2022-09-14T17:57:40;19.60;99.90
5023;DHT22;2530;47.990;7.866;2022-09-14T18:00:07;19.50;99.90
5023;DHT22;2530;47.990;7.866;2022-09-14T18:02:32;19.40;99.90
5023;DHT22;2530;47.990;7.866;2022-09-14T18:04:58;19.40;99.90
5023;DHT22;2530;47.990;7.866;2022-09-14T18:07:25;19.50;99.90
5023;DHT22;2530;47.990;7.866;2022-09-14T18:09:50;19.40;99.90
5023;DHT22;2530;47.990;7.866;2022-09-14T18:12:16;19.40;99.90
5023;DHT22;2530;47.990;7.866;2022-09-14T18:14:45;19.30;99.90
5023;DHT22;2530;47.990;7.866;2022-09-14T18:17:11;19.30;99.90
5023;DHT22;2530;47.990;7.866;2022-09-14T18:19:38;19.30;99.90
5023;DHT22;2530;47.990;7.866;2022-09-14T18:22:04;19.20;99.90
5023;DHT22;2530;47.990;7.866;2022-09-14T18:24:33;19.20;99.90
5023;DHT22;2530;47.990;7.866;2022-09-14T18:26:58;19.20;99.90
5023;DHT22;2530;47.990;7.866;2022-09-14T18:33:02;19.30;99.90
5023;DHT22;2530;47.990;7.866;2022-09-14T18:35:52;19.30;99.90
5023;DHT22;2530;47.990;7.866;2022-09-14T18:38:18;19.30;99.90
5023;DHT22;2530;47.990;7.866;2022-09-14T18:40:43;19.30;99.90
5023;DHT22;2530;47.990;7.866;2022-09-14T18:43:09;19.30;99.90
5023;DHT22;2530;47.990;7.866;2022-09-14T18:45:35;19.70;99.90
5023;DHT22;2530;47.990;7.866;2022-09-14T18:48:00;19.70;99.90
5023;DHT22;2530;47.990;7.866;2022-09-14T18:50:27;19.80;99.90